createdAt,value
2017-10-24T00:01:45.796Z,3.53
2017-10-24T00:04:13.666Z,2.90
2017-10-24T00:06:41.559Z,3.07
2017-10-24T00:09:09.502Z,2.73
2017-10-24T00:11:37.267Z,3.47
2017-10-24T00:14:05.804Z,3.40
2017-10-24T00:16:33.616Z,5.30
2017-10-24T00:19:01.382Z,3.53
2017-10-24T00:21:29.967Z,3.30
2017-10-24T00:23:57.835Z,3.03
2017-10-24T00:26:25.703Z,3.50
2017-10-24T00:28:53.675Z,3.33
2017-10-24T00:31:21.647Z,3.20
2017-10-24T00:33:49.323Z,3.50
2017-10-24T00:36:17.179Z,3.20
2017-10-24T00:38:45.042Z,2.90
2017-10-24T00:41:12.789Z,2.63
2017-10-24T00:43:40.573Z,3.03
2017-10-24T00:46:08.440Z,2.90
2017-10-24T00:48:36.410Z,3.57
2017-10-24T00:51:04.158Z,3.17
2017-10-24T00:53:31.942Z,3.50
2017-10-24T00:55:59.810Z,3.73
2017-10-24T00:58:27.687Z,3.80
2017-10-24T01:00:55.449Z,3.73
2017-10-24T01:03:23.426Z,3.23
2017-10-24T01:05:51.215Z,3.23
2017-10-24T01:08:19.063Z,3.07
2017-10-24T01:10:46.919Z,3.30
2017-10-24T02:39:14.693Z,4.13
2017-10-24T02:41:42.458Z,3.40
2017-10-24T02:44:11.047Z,3.50
2017-10-24T02:46:38.898Z,4.00
2017-10-24T02:49:06.779Z,4.90
2017-10-24T02:51:34.854Z,4.80
2017-10-24T02:54:02.516Z,5.20
2017-10-24T02:56:31.203Z,5.00
2017-10-24T02:58:59.736Z,5.13
2017-10-24T03:01:28.269Z,5.30
2017-10-24T03:03:56.242Z,5.43
2017-10-24T03:06:23.983Z,4.93
2017-10-24T03:08:51.770Z,4.90
2017-10-24T03:11:19.740Z,5.40
2017-10-24T03:13:47.716Z,5.43
2017-10-24T03:16:15.604Z,5.53
2017-10-24T03:18:43.344Z,5.47
2017-10-24T03:21:11.211Z,5.73
2017-10-24T03:23:39.083Z,5.53
2017-10-24T03:30:14.460Z,5.53
2017-10-24T03:32:42.524Z,5.80
2017-10-24T03:35:11.109Z,5.87
2017-10-24T03:37:38.875Z,6.73
2017-10-24T03:40:06.620Z,7.20
2017-10-24T03:42:34.223Z,7.57
2017-10-24T03:45:01.944Z,8.87
2017-10-24T03:47:29.732Z,8.00
2017-10-24T03:49:57.510Z,10.20
2017-10-24T03:52:25.363Z,9.77
2017-10-24T03:54:53.074Z,7.80
2017-10-24T03:57:21.771Z,9.10
2017-10-24T03:59:50.403Z,9.20
2017-10-24T04:02:18.066Z,9.00
2017-10-24T04:04:46.751Z,9.20
2017-10-24T04:07:14.632Z,8.80
2017-10-24T04:09:42.488Z,9.50
2017-10-24T04:12:10.458Z,10.60
2017-10-24T04:14:38.217Z,10.03
2017-10-24T04:17:06.045Z,10.33
2017-10-24T04:19:34.573Z,11.13
2017-10-24T04:22:02.343Z,17.27
2017-10-24T04:24:30.105Z,14.57
2017-10-24T04:26:58.892Z,15.57
2017-10-24T04:29:27.581Z,20.93
2017-10-24T04:31:55.448Z,20.53
2017-10-24T04:34:23.211Z,19.80
2017-10-24T04:36:50.961Z,18.73
2017-10-24T04:39:18.745Z,19.77
2017-10-24T04:41:46.511Z,20.67
2017-10-24T04:44:14.367Z,22.37
2017-10-24T04:46:42.091Z,21.13
2017-10-24T04:49:09.908Z,20.50
2017-10-24T04:51:37.660Z,19.17
2017-10-24T04:54:05.272Z,21.80
2017-10-24T04:56:33.205Z,21.40
2017-10-24T04:59:00.970Z,26.30
2017-10-24T05:01:30.273Z,24.33
2017-10-24T05:03:58.069Z,22.87
2017-10-24T05:06:25.802Z,23.93
2017-10-24T05:08:53.773Z,24.53
2017-10-24T05:11:21.538Z,23.73
2017-10-24T05:13:49.822Z,24.20
2017-10-24T05:16:18.406Z,22.60
2017-10-24T05:18:46.204Z,24.20
2017-10-24T05:21:14.140Z,23.87
2017-10-24T05:23:41.890Z,23.77
2017-10-24T05:26:09.620Z,25.50
2017-10-24T05:28:38.177Z,24.40
2017-10-24T05:33:58.081Z,23.97
2017-10-24T05:36:25.921Z,25.40
2017-10-24T05:38:53.789Z,25.20
2017-10-24T05:41:21.628Z,25.17
2017-10-24T05:43:50.346Z,25.77
2017-10-24T05:46:18.152Z,25.00
2017-10-24T05:48:45.765Z,24.20
2017-10-24T05:51:13.477Z,23.40
2017-10-24T05:53:41.303Z,25.60
2017-10-24T05:56:09.272Z,24.27
2017-10-24T05:58:37.037Z,27.10
2017-10-24T06:01:04.743Z,24.03
2017-10-24T06:03:32.462Z,24.50
2017-10-24T06:06:00.175Z,24.70
2017-10-24T06:08:28.099Z,24.77
2017-10-24T06:10:56.085Z,24.87
2017-10-24T06:13:24.039Z,26.70
2017-10-24T06:15:51.788Z,26.07
2017-10-24T06:18:19.570Z,25.37
2017-10-24T06:20:47.438Z,25.63
2017-10-24T06:23:15.192Z,23.80
2017-10-24T06:25:42.915Z,25.70
2017-10-24T06:28:10.638Z,25.03
2017-10-24T06:30:38.401Z,24.70
2017-10-24T06:33:06.265Z,25.50
2017-10-24T06:35:34.132Z,24.83
2017-10-24T06:38:01.899Z,24.93
2017-10-24T06:40:29.664Z,25.20
2017-10-24T06:42:57.532Z,27.00
2017-10-24T06:45:25.400Z,27.73
2017-10-24T06:47:53.164Z,25.30
2017-10-24T06:50:21.753Z,27.70
2017-10-24T06:52:49.618Z,27.37
2017-10-24T06:55:17.486Z,28.27
2017-10-24T06:57:45.232Z,26.90
2017-10-24T07:00:13.221Z,26.03
2017-10-24T07:02:42.480Z,26.63
2017-10-24T07:05:10.200Z,25.23
2017-10-24T07:07:37.951Z,25.30
2017-10-24T07:10:05.828Z,24.80
2017-10-24T07:12:33.608Z,26.73
2017-10-24T07:15:01.555Z,25.37
2017-10-24T07:17:29.320Z,27.90
2017-10-24T07:19:58.621Z,23.60
2017-10-24T07:22:26.495Z,22.87
2017-10-24T07:24:54.260Z,25.27
2017-10-24T07:27:22.020Z,23.40
2017-10-24T07:29:49.888Z,24.30
2017-10-24T07:32:17.670Z,24.47
2017-10-24T07:34:45.522Z,24.80
2017-10-24T07:37:13.389Z,23.40
2017-10-24T07:39:41.359Z,22.13
2017-10-24T07:42:09.230Z,22.47
2017-10-24T07:44:37.095Z,21.37
2017-10-24T07:47:04.843Z,22.27
2017-10-24T07:49:32.633Z,21.63
2017-10-24T07:52:00.597Z,22.77
2017-10-24T07:54:28.464Z,22.17
2017-10-24T07:56:56.212Z,20.03
2017-10-24T07:59:23.995Z,18.80
2017-10-24T08:01:52.068Z,21.00
2017-10-24T08:04:19.935Z,19.80
2017-10-24T08:06:47.703Z,20.20
2017-10-24T08:09:15.466Z,18.80
2017-10-24T08:11:43.439Z,19.57
2017-10-24T08:14:11.304Z,18.00
2017-10-24T08:16:39.176Z,16.80
2017-10-24T08:19:06.927Z,17.40
2017-10-24T08:21:34.809Z,15.90
2017-10-24T08:24:02.574Z,15.47
2017-10-24T08:26:30.541Z,15.53
2017-10-24T08:28:58.297Z,15.40
2017-10-24T08:31:26.179Z,15.53
2017-10-24T08:33:54.008Z,13.67
2017-10-24T08:36:21.911Z,13.80
2017-10-24T08:38:49.664Z,13.03
2017-10-24T08:41:17.392Z,13.87
2017-10-24T08:43:45.207Z,13.23
2017-10-24T08:46:12.972Z,12.57
2017-10-24T08:48:40.789Z,12.80
2017-10-24T08:51:08.606Z,10.80
2017-10-24T08:53:36.354Z,14.67
2017-10-24T08:56:04.076Z,12.90
2017-10-24T08:58:31.682Z,11.37
2017-10-24T09:00:59.462Z,11.73
2017-10-24T09:03:27.228Z,12.50
2017-10-24T09:32:49.456Z,10.50
2017-10-24T09:35:17.225Z,9.77
2017-10-24T09:37:45.807Z,9.57
2017-10-24T09:40:13.572Z,9.93
2017-10-24T09:42:41.337Z,8.97
2017-10-24T09:45:09.310Z,9.33
2017-10-24T09:47:38.201Z,10.73
2017-10-24T09:50:05.967Z,9.33
2017-10-24T09:52:34.549Z,9.17
2017-10-24T09:55:02.316Z,8.73
2017-10-24T09:57:30.181Z,9.37
2017-10-24T09:59:57.948Z,8.10
2017-10-24T10:02:25.754Z,8.67
2017-10-24T10:04:53.483Z,8.13
2017-10-24T10:07:21.244Z,7.90
2017-10-24T10:09:49.119Z,7.40
2017-10-24T10:12:16.981Z,7.73
2017-10-24T10:14:44.848Z,7.53
2017-10-24T10:17:12.716Z,7.60
2017-10-24T10:19:41.305Z,7.43
2017-10-24T10:22:11.220Z,7.40
2017-10-24T10:24:39.698Z,7.93
2017-10-24T10:27:07.774Z,10.73
2017-10-24T10:29:35.537Z,8.30
2017-10-24T10:32:03.410Z,7.93
2017-10-24T10:34:31.272Z,7.37
2017-10-24T10:36:59.038Z,7.90
2017-10-24T10:39:26.807Z,6.67
2017-10-24T10:41:54.675Z,6.97
2017-10-24T10:44:22.538Z,6.00
2017-10-24T10:46:50.305Z,6.80
2017-10-24T10:49:18.893Z,5.60
2017-10-24T10:51:46.758Z,5.00
2017-10-24T10:54:14.525Z,5.20
2017-10-24T10:56:42.419Z,5.80
2017-10-24T10:59:10.207Z,5.70
2017-10-24T11:01:38.128Z,5.43
2017-10-24T11:04:05.995Z,5.60
2017-10-24T11:06:33.759Z,5.47
2017-10-24T11:09:01.587Z,5.20
2017-10-24T11:11:29.299Z,5.20
2017-10-24T11:13:57.057Z,5.13
2017-10-24T11:16:25.469Z,5.97
2017-10-24T11:18:53.493Z,5.43
2017-10-24T11:21:21.481Z,5.57
2017-10-24T11:23:49.145Z,5.50
2017-10-24T11:26:17.730Z,5.00
2017-10-24T11:28:45.402Z,5.70
2017-10-24T11:31:13.981Z,4.93
2017-10-24T11:33:41.741Z,5.03
2017-10-24T11:36:09.532Z,5.50
2017-10-24T11:38:37.249Z,4.33
2017-10-24T11:41:05.753Z,4.70
2017-10-24T11:43:33.537Z,4.93
2017-10-24T11:46:01.286Z,5.23
2017-10-24T11:48:29.052Z,4.53
2017-10-24T11:50:56.919Z,4.70
2017-10-24T11:53:24.666Z,4.40
2017-10-24T11:55:52.565Z,4.30
2017-10-24T11:58:20.318Z,5.30
2017-10-24T12:00:48.287Z,4.30
2017-10-24T12:03:19.739Z,4.67
2017-10-24T12:05:47.504Z,4.33
2017-10-24T12:08:15.378Z,4.20
2017-10-24T12:10:43.223Z,4.00
2017-10-24T12:13:11.006Z,4.93
2017-10-24T12:15:39.080Z,3.93
2017-10-24T12:18:06.933Z,4.27
2017-10-24T12:20:34.654Z,4.17
2017-10-24T12:23:02.580Z,4.70
2017-10-24T12:25:30.243Z,4.70
2017-10-24T12:27:58.111Z,4.60
2017-10-24T12:30:25.979Z,4.03
2017-10-24T12:32:53.847Z,3.80
2017-10-24T12:35:21.817Z,4.00
2017-10-24T12:37:49.712Z,4.60
2017-10-24T12:40:18.270Z,4.00
2017-10-24T12:42:46.854Z,3.80
2017-10-24T12:45:15.443Z,3.53
2017-10-24T12:47:43.306Z,4.00
2017-10-24T12:50:11.072Z,4.10
2017-10-24T12:52:40.088Z,3.80
2017-10-24T12:55:07.811Z,4.27
2017-10-24T12:57:37.136Z,4.50
2017-10-24T13:00:08.996Z,3.50
2017-10-24T13:02:36.966Z,4.50
2017-10-24T13:05:06.473Z,4.47
2017-10-24T13:07:34.237Z,4.57
2017-10-24T13:10:02.825Z,4.20
2017-10-24T13:12:31.407Z,4.50
2017-10-24T13:14:59.275Z,5.50
2017-10-24T13:17:27.040Z,5.10
2017-10-24T13:19:54.757Z,4.90
2017-10-24T13:22:22.575Z,5.40
2017-10-24T13:24:50.329Z,4.80
2017-10-24T13:27:18.109Z,4.60
2017-10-24T13:29:45.977Z,5.23
2017-10-24T13:32:13.846Z,4.43
2017-10-24T13:34:41.607Z,4.67
2017-10-24T13:37:10.135Z,5.50
2017-10-24T13:39:38.162Z,5.30
2017-10-24T13:42:05.925Z,4.77
2017-10-24T13:44:33.547Z,4.70
2017-10-24T13:47:02.069Z,6.10
2017-10-24T13:49:30.655Z,5.13
2017-10-24T13:51:58.516Z,5.57
2017-10-24T13:54:26.289Z,6.23
2017-10-24T13:56:54.263Z,6.00
2017-10-24T13:59:22.130Z,6.37
2017-10-24T14:01:49.895Z,5.70
2017-10-24T14:04:23.297Z,5.10
2017-10-24T14:06:56.728Z,5.40
2017-10-24T14:09:43.291Z,5.50
2017-10-24T14:12:11.062Z,6.50
2017-10-24T14:14:39.029Z,6.73
2017-10-24T14:17:06.795Z,6.03
2017-10-24T14:19:34.564Z,5.40
2017-10-24T14:22:03.104Z,5.00
2017-10-24T14:24:31.014Z,5.90
2017-10-24T14:26:58.881Z,6.17
2017-10-24T14:29:26.632Z,4.90
2017-10-24T14:31:54.416Z,5.50
2017-10-24T14:34:22.281Z,5.47
2017-10-24T14:36:50.149Z,5.30
2017-10-24T14:39:17.914Z,5.80
2017-10-24T14:41:45.784Z,4.90
2017-10-24T14:44:13.547Z,5.60
2017-10-24T14:46:41.517Z,6.10
2017-10-24T14:49:09.195Z,5.90
2017-10-24T14:51:36.982Z,5.37
2017-10-24T14:54:04.713Z,6.10
2017-10-24T14:56:32.482Z,5.30
2017-10-24T14:59:00.345Z,5.37
2017-10-24T15:01:28.011Z,5.40
2017-10-24T15:03:56.488Z,4.70
2017-10-24T15:06:24.359Z,5.10
2017-10-24T15:08:52.333Z,5.20
2017-10-24T15:11:20.079Z,7.30
2017-10-24T15:13:47.860Z,4.80
2017-10-24T15:16:15.829Z,5.00
2017-10-24T15:18:43.700Z,5.50
2017-10-24T15:21:11.447Z,5.10
2017-10-24T15:23:39.228Z,4.87
2017-10-24T15:26:06.993Z,4.60
2017-10-24T15:28:34.759Z,4.50
2017-10-24T15:31:02.524Z,5.00
2017-10-24T15:33:30.303Z,4.53
2017-10-24T15:35:58.064Z,4.67
2017-10-24T15:38:25.925Z,3.93
2017-10-24T15:40:53.896Z,4.50
2017-10-24T15:43:21.762Z,4.23
2017-10-24T15:45:49.393Z,4.50
2017-10-24T15:48:18.077Z,4.10
2017-10-24T15:50:46.697Z,5.57
2017-10-24T15:53:14.362Z,4.80
2017-10-24T15:55:42.127Z,3.97
2017-10-24T15:58:10.000Z,4.30
2017-10-24T16:00:37.760Z,4.50
2017-10-24T16:03:05.612Z,4.60
2017-10-24T16:05:33.501Z,4.43
2017-10-24T16:08:01.364Z,4.33
2017-10-24T16:10:29.128Z,3.70
2017-10-24T16:12:56.997Z,4.07
2017-10-24T16:18:16.307Z,4.43
2017-10-24T16:20:44.164Z,4.73
2017-10-24T16:23:12.024Z,4.23
2017-10-24T16:25:40.556Z,4.53
2017-10-24T16:28:08.378Z,4.23
2017-10-24T16:30:36.138Z,4.70
2017-10-24T16:33:03.921Z,5.17
2017-10-24T16:35:31.696Z,4.60
2017-10-24T16:37:59.744Z,4.43
2017-10-24T16:40:27.710Z,4.77
2017-10-24T16:42:55.477Z,4.70
2017-10-24T16:45:24.265Z,5.27
2017-10-24T16:47:51.867Z,4.33
2017-10-24T16:50:19.583Z,5.30
2017-10-24T16:52:47.304Z,4.93
2017-10-24T16:55:15.122Z,4.77
2017-10-24T16:57:42.872Z,4.60
2017-10-24T17:00:10.658Z,5.70
2017-10-24T17:02:38.521Z,5.67
2017-10-24T17:05:06.288Z,5.10
2017-10-24T17:07:34.005Z,4.87
2017-10-24T17:10:03.354Z,4.80
2017-10-24T17:12:31.017Z,4.40
2017-10-24T17:14:58.731Z,5.43
2017-10-24T17:17:27.469Z,4.70
2017-10-24T17:19:55.345Z,5.23
2017-10-24T17:22:23.318Z,4.53
2017-10-24T17:24:51.074Z,4.57
2017-10-24T17:27:18.844Z,4.93
2017-10-24T17:29:46.809Z,5.20
2017-10-24T17:32:14.785Z,5.13
2017-10-24T17:34:42.655Z,5.00
2017-10-24T17:37:10.392Z,5.30
2017-10-24T17:39:38.999Z,5.23
2017-10-24T17:42:06.865Z,5.53
2017-10-24T17:44:34.737Z,5.60
2017-10-24T17:47:02.706Z,5.20
2017-10-24T17:49:30.469Z,5.37
2017-10-24T17:51:58.292Z,5.53
2017-10-24T17:54:26.102Z,5.70
2017-10-24T17:56:53.768Z,6.00
2017-10-24T17:59:22.350Z,5.40
2017-10-24T18:01:50.116Z,5.53
2017-10-24T18:04:17.861Z,5.57
2017-10-24T18:06:46.364Z,5.23
2017-10-24T18:09:14.130Z,5.30
2017-10-24T18:11:41.895Z,4.97
2017-10-24T18:14:09.711Z,5.17
2017-10-24T18:16:37.541Z,5.70
2017-10-24T18:19:05.878Z,5.30
2017-10-24T18:21:34.492Z,5.30
2017-10-24T18:24:02.361Z,5.53
2017-10-24T18:26:30.024Z,5.50
2017-10-24T18:28:57.790Z,4.90
2017-10-24T18:31:25.569Z,5.53
2017-10-24T18:33:53.324Z,4.80
2017-10-24T18:36:21.856Z,5.87
2017-10-24T18:38:51.210Z,4.70
2017-10-24T18:41:18.982Z,4.70
2017-10-24T18:43:46.738Z,4.60
2017-10-24T18:46:14.504Z,5.00
2017-10-24T18:48:42.267Z,5.60
2017-10-24T18:51:10.233Z,5.30
2017-10-24T18:53:38.106Z,5.07
2017-10-24T18:56:06.691Z,4.80
2017-10-24T18:58:34.559Z,5.00
2017-10-24T19:01:02.430Z,5.23
2017-10-24T19:03:30.289Z,5.03
2017-10-24T19:05:58.009Z,5.60
2017-10-24T19:08:25.734Z,6.50
2017-10-24T19:10:53.395Z,5.20
2017-10-24T19:13:21.261Z,5.23
2017-10-24T19:15:49.139Z,5.67
2017-10-24T19:18:16.801Z,5.50
2017-10-24T19:20:44.659Z,5.30
2017-10-24T19:23:12.625Z,4.63
2017-10-24T19:25:40.595Z,4.10
2017-10-24T19:28:08.364Z,4.40
2017-10-24T19:30:36.077Z,4.47
2017-10-24T19:33:03.894Z,4.03
2017-10-24T19:35:31.963Z,4.40
2017-10-24T19:37:59.934Z,3.80
2017-10-24T19:40:27.709Z,3.60
2017-10-24T19:42:56.390Z,3.70
2017-10-24T19:45:24.971Z,3.90
2017-10-24T19:47:52.774Z,3.13
2017-10-24T19:50:20.707Z,3.27
2017-10-24T19:52:48.275Z,3.23
2017-10-24T19:55:16.136Z,3.27
2017-10-24T19:57:44.006Z,3.10
2017-10-24T20:00:11.750Z,3.07
2017-10-24T20:02:40.193Z,2.93
2017-10-24T20:05:08.630Z,3.27
2017-10-24T20:07:36.398Z,3.13
2017-10-24T20:10:04.269Z,2.87
2017-10-24T20:12:32.039Z,3.13
2017-10-24T20:14:59.881Z,3.50
2017-10-24T20:17:27.766Z,3.20
2017-10-24T20:19:55.649Z,3.83
2017-10-24T20:22:23.605Z,3.50
2017-10-24T20:24:51.472Z,3.73
2017-10-24T20:27:19.238Z,3.20
2017-10-24T20:29:47.060Z,3.80
2017-10-24T20:32:15.077Z,3.70
2017-10-24T20:34:42.944Z,3.63
2017-10-24T20:37:10.709Z,3.93
2017-10-24T20:39:38.431Z,3.77
2017-10-24T20:45:09.454Z,4.23
2017-10-24T20:52:35.106Z,5.70
2017-10-24T20:57:32.427Z,5.87
2017-10-24T21:02:28.892Z,6.80
2017-10-24T21:04:57.924Z,7.43
2017-10-24T21:07:25.475Z,8.00
2017-10-24T21:12:21.195Z,7.57
2017-10-24T21:14:49.499Z,8.33
2017-10-24T21:17:17.035Z,8.67
2017-10-24T21:19:45.344Z,9.43
2017-10-24T21:22:14.136Z,9.57
2017-10-24T21:24:41.743Z,10.40
2017-10-24T21:27:09.280Z,11.03
2017-10-24T21:29:36.937Z,10.97
2017-10-24T21:34:32.321Z,11.30
2017-10-24T21:39:27.859Z,11.10
2017-10-24T21:41:55.423Z,12.00
2017-10-24T21:46:55.884Z,12.70
2017-10-24T21:49:23.399Z,12.67
2017-10-24T21:51:50.940Z,13.47
2017-10-24T21:56:46.115Z,13.70
2017-10-24T22:06:37.073Z,15.40
2017-10-24T22:09:04.607Z,15.93
2017-10-24T22:11:32.924Z,16.37
2017-10-24T22:14:00.481Z,15.23
2017-10-24T22:18:55.821Z,15.07
2017-10-24T22:21:23.335Z,16.67
2017-10-24T22:29:01.167Z,17.17
2017-10-24T22:31:28.761Z,16.50
2017-10-24T22:33:56.335Z,16.97
2017-10-24T22:38:51.644Z,16.30
2017-10-24T22:48:42.721Z,17.30
2017-10-24T23:01:10.864Z,15.40
2017-10-24T23:03:38.396Z,16.07
2017-10-24T23:11:02.233Z,15.50
2017-10-24T23:18:44.057Z,14.70
2017-10-24T23:21:11.632Z,13.43
2017-10-24T23:23:39.158Z,13.43
2017-10-24T23:31:02.978Z,13.37
2017-10-24T23:41:21.501Z,13.63
2017-10-24T23:51:12.361Z,17.23
2017-10-24T23:53:39.932Z,19.03
